Time;durP1;ratioP1;P1;durP2;ratioP2;P2;SDS_P1;SDS_P2;PMS_P1;PMS_P2;Temp;Humidity;BMP_temperature;BMP_pressure;BME280_temperature;BME280_humidity;BME280_pressure;Samples;Min_cycle;Max_cycle;Signal;HPM_P1;HPM_P2
2022/04/30 00:02:06;;;;;;;11.43;10.23;;;10.80;99.90;;;;;;5055502;28;20711;-79
2022/04/30 00:04:35;;;;;;;12.57;11.37;;;10.70;99.90;;;;;;5074336;28;20204;-78
2022/04/30 00:07:04;;;;;;;11.73;10.63;;;10.70;99.90;;;;;;5056995;28;20548;-78
2022/04/30 00:09:31;;;;;;;11.90;10.57;;;10.70;99.90;;;;;;5074895;28;20703;-78
2022/04/30 00:11:59;;;;;;;12.30;11.00;;;10.70;99.90;;;;;;5055979;28;20255;-78
2022/04/30 00:14:27;;;;;;;13.80;12.40;;;10.60;99.90;;;;;;5073607;28;20632;-78
2022/04/30 00:16:54;;;;;;;16.17;14.37;;;10.60;99.90;;;;;;5055745;28;20268;-78
2022/04/30 00:19:22;;;;;;;14.37;12.87;;;10.50;99.90;;;;;;5074972;28;20211;-78
2022/04/30 00:21:50;;;;;;;15.17;12.80;;;10.50;99.90;;;;;;5073784;28;20283;-79
2022/04/30 00:24:18;;;;;;;13.87;11.77;;;10.50;99.90;;;;;;5074900;28;20207;-78
2022/04/30 00:26:48;;;;;;;13.30;11.97;;;10.50;99.90;;;;;;5074844;28;20198;-78
2022/04/30 00:29:16;;;;;;;12.73;11.43;;;10.50;99.90;;;;;;5056761;28;20194;-78
2022/04/30 00:31:43;;;;;;;12.30;11.00;;;10.40;99.90;;;;;;5053334;28;20223;-77
2022/04/30 00:34:10;;;;;;;12.40;11.03;;;10.40;99.90;;;;;;5054026;28;20205;-78
2022/04/30 00:36:37;;;;;;;11.53;10.43;;;10.40;99.90;;;;;;5063594;28;20295;-78
2022/04/30 00:39:05;;;;;;;12.70;11.50;;;10.40;99.90;;;;;;5055344;28;20202;-78
2022/04/30 00:41:33;;;;;;;10.90;9.80;;;10.40;99.90;;;;;;5051445;28;20227;-78
2022/04/30 00:44:01;;;;;;;11.87;10.67;;;10.40;99.90;;;;;;5054773;28;20205;-78
2022/04/30 00:46:29;;;;;;;11.83;10.53;;;10.50;99.90;;;;;;5056903;28;20997;-78
2022/04/30 00:48:57;;;;;;;11.23;9.97;;;10.50;99.90;;;;;;5053375;28;20214;-78
2022/04/30 00:51:25;;;;;;;9.97;8.97;;;10.50;99.90;;;;;;5055983;28;20233;-79
2022/04/30 00:53:53;;;;;;;10.17;8.60;;;10.60;99.90;;;;;;5052905;28;20199;-78
2022/04/30 00:56:28;;;;;;;10.60;9.57;;;10.60;99.90;;;;;;5055702;28;20249;-79
2022/04/30 00:58:57;;;;;;;10.73;9.73;;;10.60;99.90;;;;;;5052044;28;20215;-78
2022/04/30 01:01:25;;;;;;;9.53;8.63;;;10.60;99.90;;;;;;5053555;28;20230;-78
2022/04/30 01:04:19;;;;;;;11.87;10.67;;;10.60;99.90;;;;;;5056930;28;20208;-78
2022/04/30 01:06:50;;;;;;;10.33;9.23;;;10.60;99.90;;;;;;5053654;28;20195;-78
2022/04/30 01:09:20;;;;;;;9.23;8.43;;;10.50;99.90;;;;;;5053338;28;20207;-78
2022/04/30 01:11:49;;;;;;;9.70;8.80;;;10.50;99.90;;;;;;5048497;28;20215;-78
2022/04/30 01:14:18;;;;;;;10.97;9.77;;;10.50;99.90;;;;;;5048208;28;20195;-78
2022/04/30 01:16:46;;;;;;;10.87;9.77;;;10.40;99.90;;;;;;5052259;28;20215;-78
2022/04/30 01:19:19;;;;;;;12.63;10.80;;;10.30;99.90;;;;;;5053275;28;20199;-78
2022/04/30 01:21:51;;;;;;;10.97;9.80;;;10.30;99.90;;;;;;5049403;28;20313;-78
2022/04/30 01:24:22;;;;;;;12.20;11.00;;;10.20;99.90;;;;;;5047866;28;20195;-78
2022/04/30 01:26:51;;;;;;;12.27;11.07;;;10.20;99.90;;;;;;5048573;28;20195;-78
2022/04/30 01:29:19;;;;;;;10.70;9.60;;;10.20;99.90;;;;;;5072753;28;20209;-78
2022/04/30 01:37:25;;;;;;;11.07;9.73;;;10.20;99.90;;;;;;5048287;28;20195;-79
2022/04/30 01:39:58;;;;;;;10.13;9.20;;;10.20;99.90;;;;;;5051842;28;20743;-78
2022/04/30 01:42:29;;;;;;;10.63;9.53;;;10.10;99.90;;;;;;5052218;28;20226;-79
2022/04/30 01:44:56;;;;;;;9.87;8.97;;;10.20;99.90;;;;;;5050701;28;20660;-79
2022/04/30 01:47:25;;;;;;;10.37;9.33;;;10.20;99.90;;;;;;5047670;28;20245;-78
2022/04/30 01:49:52;;;;;;;9.77;8.77;;;10.30;99.90;;;;;;5048396;28;20225;-78
2022/04/30 01:52:19;;;;;;;9.53;8.27;;;10.30;99.90;;;;;;5092093;22;20245;-77
2022/04/30 01:54:46;;;;;;;10.87;9.03;;;10.40;99.90;;;;;;5103669;28;20573;-77
2022/04/30 01:57:22;;;;;;;9.97;9.07;;;10.30;99.90;;;;;;5103153;28;20763;-77
2022/04/30 01:59:51;;;;;;;10.43;9.33;;;10.30;99.90;;;;;;5112795;27;20204;-78
2022/04/30 02:02:18;;;;;;;9.63;8.70;;;10.30;99.90;;;;;;5102034;28;20708;-78
2022/04/30 02:04:45;;;;;;;11.37;9.17;;;10.30;99.90;;;;;;5102120;28;20288;-78
2022/04/30 02:07:12;;;;;;;11.47;9.50;;;10.30;99.90;;;;;;5103011;28;20251;-77
2022/04/30 02:09:39;;;;;;;10.53;9.43;;;10.30;99.90;;;;;;5102594;28;20246;-77
2022/04/30 02:12:07;;;;;;;12.73;10.07;;;10.30;99.90;;;;;;5102249;28;20221;-77
2022/04/30 02:14:37;;;;;;;10.93;9.83;;;10.30;99.90;;;;;;5107126;28;20737;-77
2022/04/30 02:17:06;;;;;;;10.03;8.30;;;10.30;99.90;;;;;;5106864;28;20280;-78
2022/04/30 02:22:17;;;;;;;12.03;10.67;;;10.30;99.90;;;;;;5098937;28;20213;-77
2022/04/30 02:24:46;;;;;;;10.83;9.40;;;10.30;99.90;;;;;;5102760;28;20225;-77
2022/04/30 02:27:13;;;;;;;11.57;10.47;;;10.40;99.90;;;;;;5102140;28;20203;-77
2022/04/30 02:29:42;;;;;;;10.00;9.00;;;10.40;99.90;;;;;;5100389;28;20197;-78
2022/04/30 02:32:09;;;;;;;11.67;10.47;;;10.40;99.90;;;;;;5100086;28;20701;-76
2022/04/30 02:34:35;;;;;;;10.47;8.73;;;10.40;99.90;;;;;;5105913;28;20241;-77
2022/04/30 02:37:03;;;;;;;10.13;9.13;;;10.40;99.90;;;;;;5099002;28;20229;-77
2022/04/30 02:39:30;;;;;;;10.50;9.40;;;10.40;99.90;;;;;;5099395;28;20301;-77
2022/04/30 02:41:57;;;;;;;10.00;9.00;;;10.40;99.90;;;;;;5090838;28;20232;-77
2022/04/30 02:44:25;;;;;;;10.07;9.07;;;10.40;99.90;;;;;;5099138;28;20240;-78
2022/04/30 02:46:54;;;;;;;10.30;9.03;;;10.40;99.90;;;;;;5104654;28;20223;-78
2022/04/30 02:49:21;;;;;;;10.43;9.43;;;10.40;99.90;;;;;;5100783;28;20292;-78
2022/04/30 02:51:48;;;;;;;11.70;10.50;;;10.40;99.90;;;;;;5100035;28;20198;-77
2022/04/30 02:54:16;;;;;;;11.93;10.50;;;10.50;99.90;;;;;;5067181;28;20639;-77
2022/04/30 02:56:43;;;;;;;12.13;9.80;;;10.40;99.90;;;;;;5060659;28;20202;-77
2022/04/30 03:01:57;;;;;;;10.30;9.30;;;10.50;99.90;;;;;;5067464;28;20291;-78
2022/04/30 03:04:48;;;;;;;10.77;9.43;;;10.50;99.90;;;;;;5081714;28;20205;-78
2022/04/30 03:07:15;;;;;;;13.23;11.17;;;10.50;99.90;;;;;;5082241;28;20206;-77
2022/04/30 03:09:41;;;;;;;12.40;11.20;;;10.50;99.90;;;;;;5069217;28;20542;-78
2022/04/30 03:12:09;;;;;;;14.27;12.70;;;10.50;99.90;;;;;;5072353;28;20308;-78
2022/04/30 03:14:36;;;;;;;13.60;12.20;;;10.50;99.90;;;;;;5083371;28;20224;-78
2022/04/30 03:22:35;;;;;;;15.93;12.53;;;10.60;99.90;;;;;;5060382;28;20285;-78
2022/04/30 03:25:02;;;;;;;15.10;13.50;;;10.60;99.90;;;;;;5065262;28;20205;-78
2022/04/30 03:27:29;;;;;;;18.43;14.07;;;10.60;99.90;;;;;;5067656;28;20745;-77
2022/04/30 03:29:55;;;;;;;14.70;12.77;;;10.60;99.90;;;;;;5069738;28;20686;-77
2022/04/30 03:32:24;;;;;;;14.23;12.73;;;10.60;99.90;;;;;;5069441;28;20210;-77
2022/04/30 03:34:51;;;;;;;14.03;12.53;;;10.70;99.90;;;;;;5064740;28;20198;-77
2022/04/30 03:37:19;;;;;;;15.13;11.73;;;10.70;99.90;;;;;;5065208;28;20207;-77
2022/04/30 03:39:45;;;;;;;13.80;11.53;;;10.70;99.90;;;;;;5090751;28;20293;-79
2022/04/30 03:42:12;;;;;;;13.53;11.33;;;10.70;99.90;;;;;;5069601;28;20256;-80
2022/04/30 03:44:39;;;;;;;13.37;10.67;;;10.70;99.90;;;;;;5066833;28;20252;-80
2022/04/30 03:47:07;;;;;;;13.53;12.07;;;10.70;99.90;;;;;;5072472;28;20223;-80
2022/04/30 03:49:35;;;;;;;13.47;10.03;;;10.70;99.90;;;;;;5080426;28;20199;-80
2022/04/30 03:52:02;;;;;;;15.80;12.20;;;10.80;99.90;;;;;;5078635;28;20226;-79
2022/04/30 03:54:29;;;;;;;16.03;12.07;;;10.80;99.90;;;;;;5078593;28;20680;-79
2022/04/30 03:56:56;;;;;;;13.63;11.33;;;10.80;99.90;;;;;;5091041;28;20577;-81
2022/04/30 03:59:23;;;;;;;13.80;12.27;;;10.80;99.90;;;;;;5089139;28;20280;-79
2022/04/30 04:01:53;;;;;;;13.87;10.90;;;10.90;99.90;;;;;;5078639;28;20694;-79
2022/04/30 04:04:20;;;;;;;13.10;11.33;;;10.90;99.90;;;;;;5088009;28;20203;-80
2022/04/30 04:06:48;;;;;;;12.50;10.17;;;10.90;99.90;;;;;;5103830;28;20186;-79
2022/04/30 04:09:15;;;;;;;12.33;10.43;;;11.00;99.90;;;;;;5087158;28;20207;-78
2022/04/30 04:11:42;;;;;;;11.93;10.20;;;11.00;99.90;;;;;;5073569;28;20202;-80
2022/04/30 04:19:38;;;;;;;13.80;11.50;;;11.00;99.90;;;;;;5068123;28;20206;-79
2022/04/30 04:22:06;;;;;;;14.43;12.07;;;11.00;99.90;;;;;;5065494;28;20693;-79
2022/04/30 04:27:18;;;;;;;12.90;10.33;;;11.10;99.90;;;;;;5073142;28;20196;-79
2022/04/30 04:29:46;;;;;;;13.40;11.10;;;11.10;99.90;;;;;;5069694;28;20548;-80
2022/04/30 04:32:13;;;;;;;11.83;10.10;;;11.10;99.90;;;;;;5082262;28;20222;-79
2022/04/30 04:34:40;;;;;;;13.93;11.23;;;11.10;99.90;;;;;;5071663;28;20279;-80
2022/04/30 04:37:09;;;;;;;14.73;11.23;;;11.10;99.90;;;;;;5066746;28;20207;-79
2022/04/30 04:39:35;;;;;;;17.90;12.43;;;11.10;99.90;;;;;;5071555;28;20226;-78
2022/04/30 04:42:03;;;;;;;16.90;12.70;;;11.10;99.90;;;;;;5067142;28;20228;-79
2022/04/30 04:44:30;;;;;;;16.70;13.90;;;11.10;99.90;;;;;;5064789;28;20213;-78
2022/04/30 04:46:57;;;;;;;12.80;10.87;;;11.10;99.90;;;;;;5068641;28;20219;-77
2022/04/30 04:49:24;;;;;;;17.00;12.87;;;11.10;99.90;;;;;;5062424;28;20303;-80
2022/04/30 04:51:51;;;;;;;13.63;11.70;;;11.10;99.90;;;;;;5063244;28;20196;-79
2022/04/30 04:54:19;;;;;;;14.83;11.70;;;11.10;99.90;;;;;;5073116;28;20198;-77
2022/04/30 04:56:46;;;;;;;14.47;12.33;;;11.10;99.90;;;;;;5069874;28;20194;-77
2022/04/30 04:59:14;;;;;;;17.93;13.47;;;11.20;99.90;;;;;;5071011;28;20202;-77
2022/04/30 05:01:41;;;;;;;15.43;12.97;;;11.20;99.90;;;;;;5071032;28;20223;-77
2022/04/30 05:04:08;;;;;;;13.70;12.37;;;11.20;99.90;;;;;;5063911;28;20211;-76
2022/04/30 05:06:35;;;;;;;14.50;12.80;;;11.30;99.90;;;;;;5071368;28;20215;-78
2022/04/30 05:09:03;;;;;;;15.53;13.63;;;11.30;99.90;;;;;;5088630;28;20208;-76
2022/04/30 05:11:31;;;;;;;18.50;15.67;;;11.30;99.90;;;;;;5068498;28;20243;-77
2022/04/30 05:13:58;;;;;;;17.13;14.97;;;11.20;99.90;;;;;;5068381;28;20218;-77
2022/04/30 05:16:25;;;;;;;20.03;15.90;;;11.20;99.90;;;;;;5090249;28;20195;-77
2022/04/30 05:18:52;;;;;;;19.33;15.90;;;11.20;99.90;;;;;;5063825;28;20205;-77
2022/04/30 05:21:18;;;;;;;19.57;15.37;;;11.20;99.90;;;;;;5072636;28;20218;-77
2022/04/30 05:23:45;;;;;;;17.93;16.03;;;11.20;99.90;;;;;;5061621;28;20301;-76
2022/04/30 05:26:13;;;;;;;15.07;13.33;;;11.20;99.90;;;;;;5082594;28;20195;-78
2022/04/30 05:28:41;;;;;;;17.97;15.43;;;11.20;99.90;;;;;;5062355;28;20205;-77
2022/04/30 05:31:08;;;;;;;18.63;15.20;;;11.20;99.90;;;;;;5065353;28;20211;-77
2022/04/30 05:33:35;;;;;;;15.97;14.17;;;11.20;99.90;;;;;;5062975;28;20223;-78
2022/04/30 05:36:03;;;;;;;17.97;15.27;;;11.20;99.90;;;;;;5066008;28;20205;-77
2022/04/30 05:38:30;;;;;;;16.67;14.23;;;11.20;99.90;;;;;;5070786;28;20302;-77
2022/04/30 05:40:57;;;;;;;16.33;13.93;;;11.20;99.90;;;;;;5065948;28;20212;-77
2022/04/30 05:43:23;;;;;;;17.07;13.40;;;11.30;99.90;;;;;;5066518;28;20263;-79
2022/04/30 05:45:55;;;;;;;16.70;13.43;;;11.30;99.90;;;;;;5071195;28;20254;-78
2022/04/30 05:48:22;;;;;;;18.10;15.03;;;11.30;99.90;;;;;;5074512;28;20203;-80
2022/04/30 05:50:51;;;;;;;16.20;14.47;;;11.40;99.90;;;;;;5084395;28;20265;-78
2022/04/30 05:53:18;;;;;;;17.90;16.00;;;11.40;99.90;;;;;;5093063;28;20226;-78
2022/04/30 05:55:45;;;;;;;16.57;14.87;;;11.40;99.90;;;;;;5098932;28;20199;-79
2022/04/30 05:58:11;;;;;;;17.10;15.30;;;11.40;99.90;;;;;;5116398;27;20207;-78
2022/04/30 06:00:38;;;;;;;17.23;15.43;;;11.40;99.90;;;;;;5107537;28;20257;-78
2022/04/30 06:03:06;;;;;;;17.13;15.33;;;11.50;99.90;;;;;;5108504;28;20779;-78
2022/04/30 06:05:33;;;;;;;15.30;13.70;;;11.50;99.90;;;;;;5106878;27;20715;-79
2022/04/30 06:08:00;;;;;;;16.70;15.00;;;11.40;99.90;;;;;;5115421;27;20194;-79
2022/04/30 06:10:27;;;;;;;18.53;14.27;;;11.50;99.90;;;;;;5124858;27;20201;-79
2022/04/30 06:12:54;;;;;;;15.83;14.27;;;11.50;99.90;;;;;;5143444;27;20304;-79
2022/04/30 06:15:21;;;;;;;18.23;15.53;;;11.50;99.90;;;;;;5128437;27;20198;-79
2022/04/30 06:17:48;;;;;;;16.53;14.83;;;11.50;99.90;;;;;;5122105;27;20664;-79
2022/04/30 06:20:16;;;;;;;16.93;14.47;;;11.60;99.90;;;;;;5126947;27;20199;-80
2022/04/30 06:22:44;;;;;;;15.80;14.07;;;11.60;99.90;;;;;;5121357;27;20250;-80
2022/04/30 06:25:11;;;;;;;18.20;15.47;;;11.70;99.90;;;;;;5142911;27;20199;-79
2022/04/30 06:27:38;;;;;;;18.97;16.30;;;11.70;99.90;;;;;;5122110;27;20293;-80
2022/04/30 06:30:07;;;;;;;19.10;16.30;;;11.70;99.90;;;;;;5126273;27;20260;-80
2022/04/30 06:32:34;;;;;;;17.20;15.40;;;11.70;99.90;;;;;;5115952;27;20267;-79
2022/04/30 06:35:02;;;;;;;19.47;16.30;;;11.70;99.90;;;;;;5099561;28;20261;-78
2022/04/30 06:37:30;;;;;;;17.07;15.27;;;11.80;99.90;;;;;;5100361;28;20282;-79
2022/04/30 06:39:57;;;;;;;19.90;16.87;;;11.80;99.90;;;;;;5098609;28;20683;-79
2022/04/30 06:42:24;;;;;;;17.33;15.53;;;11.80;99.90;;;;;;5107519;28;20231;-79
2022/04/30 06:44:51;;;;;;;16.90;15.00;;;11.90;99.90;;;;;;5104431;28;20198;-79
2022/04/30 06:47:21;;;;;;;18.70;16.70;;;11.90;99.90;;;;;;5104723;28;20291;-79
2022/04/30 06:49:50;;;;;;;17.43;15.63;;;12.00;99.90;;;;;;5110869;27;20199;-80
2022/04/30 06:52:17;;;;;;;19.10;15.90;;;12.10;99.90;;;;;;5110163;28;20220;-79
2022/04/30 06:57:30;;;;;;;17.67;15.90;;;12.30;99.90;;;;;;5098097;28;20271;-80
2022/04/30 06:59:57;;;;;;;19.77;15.57;;;12.40;99.90;;;;;;5114208;28;20199;-79
2022/04/30 07:02:28;;;;;;;16.70;14.90;;;12.60;99.90;;;;;;5100166;28;20213;-79
2022/04/30 07:04:55;;;;;;;16.07;14.33;;;12.60;99.90;;;;;;5099838;28;20224;-80
2022/04/30 07:07:24;;;;;;;15.67;14.17;;;12.70;99.90;;;;;;5104076;28;20197;-81
2022/04/30 07:09:52;;;;;;;15.87;14.23;;;12.90;99.90;;;;;;5092640;28;20193;-81
2022/04/30 07:12:19;;;;;;;16.30;14.70;;;12.90;99.90;;;;;;5104300;28;20236;-77
2022/04/30 07:14:48;;;;;;;16.40;14.70;;;13.00;99.90;;;;;;5103254;28;20300;-80
2022/04/30 07:17:16;;;;;;;15.93;14.23;;;13.00;99.90;;;;;;5109581;28;20226;-80
2022/04/30 07:19:44;;;;;;;17.17;15.37;;;13.00;99.90;;;;;;5115460;27;20231;-79
2022/04/30 07:22:11;;;;;;;18.77;16.87;;;13.00;99.90;;;;;;5110898;27;20222;-80
2022/04/30 07:24:38;;;;;;;18.67;16.43;;;12.90;99.90;;;;;;5105579;27;20486;-81
2022/04/30 07:27:08;;;;;;;17.07;15.23;;;12.90;99.90;;;;;;5103877;28;20221;-79
2022/04/30 07:29:37;;;;;;;16.53;14.83;;;13.00;99.90;;;;;;5106151;28;20206;-80
2022/04/30 07:32:07;;;;;;;17.23;15.53;;;13.10;99.90;;;;;;5107521;28;20689;-80
2022/04/30 07:34:34;;;;;;;17.23;15.63;;;13.10;99.90;;;;;;5102364;28;20682;-80
2022/04/30 07:37:01;;;;;;;17.97;16.27;;;13.20;99.90;;;;;;5100212;28;20194;-81
2022/04/30 07:39:28;;;;;;;17.33;15.67;;;13.30;99.90;;;;;;5105025;28;20198;-81
2022/04/30 07:41:56;;;;;;;20.13;18.10;;;13.30;99.90;;;;;;5109092;28;20201;-80
2022/04/30 07:44:26;;;;;;;17.47;15.77;;;13.20;99.90;;;;;;5109939;28;20225;-80
2022/04/30 07:46:53;;;;;;;19.20;17.30;;;13.20;99.90;;;;;;5112980;28;20208;-81
2022/04/30 07:49:20;;;;;;;17.37;15.80;;;13.20;99.90;;;;;;5105743;28;20197;-81
2022/04/30 07:51:55;;;;;;;20.23;18.23;;;13.30;99.90;;;;;;5102529;28;20202;-80
2022/04/30 07:54:22;;;;;;;19.13;17.20;;;13.30;99.90;;;;;;5104770;22;20229;-79
2022/04/30 07:56:53;;;;;;;18.30;16.53;;;13.20;99.90;;;;;;5083339;28;20628;-80
2022/04/30 07:59:20;;;;;;;19.40;17.40;;;13.30;99.90;;;;;;5080881;28;20297;-80
2022/04/30 08:01:49;;;;;;;18.10;16.30;;;13.20;99.90;;;;;;5087009;28;20243;-79
2022/04/30 08:04:16;;;;;;;19.47;17.43;;;13.20;99.90;;;;;;5068872;28;20233;-79
2022/04/30 08:06:43;;;;;;;18.43;16.53;;;13.20;99.90;;;;;;5066578;28;20663;-80
2022/04/30 08:09:10;;;;;;;19.77;17.77;;;13.10;99.90;;;;;;5064278;28;20198;-80
2022/04/30 08:11:37;;;;;;;19.70;17.70;;;13.10;99.90;;;;;;5053747;28;20195;-80
2022/04/30 08:14:04;;;;;;;17.43;15.83;;;13.10;99.90;;;;;;5065774;28;20249;-80
2022/04/30 08:16:31;;;;;;;18.73;16.77;;;13.00;99.90;;;;;;5068085;28;20675;-81
2022/04/30 08:19:00;;;;;;;19.20;17.27;;;13.10;99.90;;;;;;5069577;28;20195;-81
2022/04/30 08:21:27;;;;;;;19.47;17.03;;;13.10;99.90;;;;;;5065367;28;20234;-81
2022/04/30 08:23:54;;;;;;;21.77;19.53;;;13.10;99.90;;;;;;5065290;28;20260;-81
2022/04/30 08:26:21;;;;;;;20.50;18.30;;;13.10;99.90;;;;;;5073384;28;20202;-78
2022/04/30 08:28:48;;;;;;;20.00;18.13;;;13.20;99.90;;;;;;5056853;28;20298;-80
2022/04/30 08:31:15;;;;;;;18.87;17.17;;;13.30;99.90;;;;;;5052495;28;20712;-79
2022/04/30 08:33:42;;;;;;;18.37;16.77;;;13.40;99.90;;;;;;5060778;28;20211;-79
2022/04/30 08:36:11;;;;;;;19.87;17.87;;;13.50;99.90;;;;;;5056155;28;20203;-79
2022/04/30 08:38:38;;;;;;;20.27;16.37;;;13.60;99.90;;;;;;5064548;28;20203;-79
2022/04/30 08:41:04;;;;;;;19.57;17.73;;;13.60;99.90;;;;;;5075941;28;20820;-79
2022/04/30 08:43:32;;;;;;;18.97;17.27;;;13.70;99.90;;;;;;5061996;28;20211;-79
2022/04/30 08:46:02;;;;;;;18.23;16.37;;;13.80;99.90;;;;;;5065852;28;20220;-80
2022/04/30 08:48:31;;;;;;;17.53;15.83;;;13.90;99.90;;;;;;5071163;28;20199;-78
2022/04/30 08:50:57;;;;;;;17.47;15.90;;;14.00;99.90;;;;;;5068826;28;20202;-78
2022/04/30 08:53:26;;;;;;;17.50;15.80;;;14.20;99.90;;;;;;5073037;28;20274;-79
2022/04/30 08:55:52;;;;;;;17.93;16.33;;;14.40;99.90;;;;;;5080752;28;20253;-81
2022/04/30 08:58:19;;;;;;;17.57;15.97;;;14.40;99.90;;;;;;5087554;28;20203;-80
2022/04/30 09:00:48;;;;;;;18.40;16.60;;;14.40;99.90;;;;;;5090743;28;20233;-80
2022/04/30 09:03:17;;;;;;;17.53;15.87;;;14.10;99.90;;;;;;5080650;28;20759;-78
2022/04/30 09:05:44;;;;;;;17.20;15.60;;;14.00;99.90;;;;;;5088695;28;20386;-78
2022/04/30 09:08:11;;;;;;;15.87;14.43;;;13.90;99.90;;;;;;5084060;28;20290;-79
2022/04/30 09:10:41;;;;;;;15.07;13.77;;;14.00;99.90;;;;;;5088750;28;20199;-80
2022/04/30 09:13:13;;;;;;;14.77;13.47;;;14.00;99.90;;;;;;5077470;28;20230;-81
2022/04/30 09:15:44;;;;;;;15.60;14.23;;;14.00;99.90;;;;;;5061444;28;20234;-80
2022/04/30 09:18:12;;;;;;;15.70;14.10;;;13.80;99.90;;;;;;5083203;28;20198;-78
2022/04/30 09:20:44;;;;;;;15.17;13.77;;;13.70;99.90;;;;;;5075129;28;20207;-80
2022/04/30 09:23:12;;;;;;;15.00;13.53;;;13.70;99.90;;;;;;5082962;28;20274;-78
2022/04/30 09:25:52;;;;;;;14.77;13.37;;;13.90;99.90;;;;;;5077757;28;20294;-79
2022/04/30 09:28:24;;;;;;;14.90;13.47;;;13.90;99.90;;;;;;5084274;28;20574;-80
2022/04/30 09:30:51;;;;;;;12.93;11.83;;;13.70;99.90;;;;;;5080304;28;20198;-80
2022/04/30 09:33:20;;;;;;;13.63;12.43;;;13.80;99.90;;;;;;5084497;28;20207;-79
2022/04/30 09:38:43;;;;;;;12.27;11.17;;;13.80;99.90;;;;;;5051591;28;20201;-80
2022/04/30 09:41:11;;;;;;;11.77;10.77;;;13.90;99.90;;;;;;5087926;28;20289;-80
2022/04/30 09:43:38;;;;;;;12.10;11.00;;;14.00;99.90;;;;;;5083531;28;20225;-80
2022/04/30 09:46:07;;;;;;;11.30;10.30;;;14.00;99.90;;;;;;5089335;28;20207;-78
2022/04/30 09:54:05;;;;;;;12.20;11.10;;;14.20;99.90;;;;;;5089046;28;20227;-80
2022/04/30 09:56:36;;;;;;;11.30;10.20;;;14.40;99.90;;;;;;5081033;28;20198;-79
2022/04/30 09:59:05;;;;;;;11.33;10.43;;;14.50;99.90;;;;;;5083878;28;20201;-80
2022/04/30 10:01:34;;;;;;;12.53;11.43;;;14.70;99.90;;;;;;5083173;28;20209;-80
2022/04/30 10:04:06;;;;;;;12.27;11.37;;;14.90;99.90;;;;;;5081543;28;20223;-80
2022/04/30 10:06:34;;;;;;;11.33;10.43;;;15.00;99.90;;;;;;5083270;28;20664;-80
2022/04/30 10:09:02;;;;;;;11.60;10.57;;;15.20;99.90;;;;;;5081711;28;20199;-79
2022/04/30 10:11:36;;;;;;;11.23;10.17;;;15.30;99.90;;;;;;5084507;28;20236;-80
2022/04/30 10:14:15;;;;;;;11.50;10.60;;;15.30;99.90;;;;;;5056657;28;20216;-80
2022/04/30 10:16:55;;;;;;;10.67;9.87;;;15.30;99.90;;;;;;5078151;28;20310;-80
2022/04/30 10:19:23;;;;;;;10.03;9.23;;;15.40;99.90;;;;;;5083932;28;20202;-80
2022/04/30 10:22:12;;;;;;;8.90;8.20;;;15.40;99.90;;;;;;5081657;28;20288;-79
2022/04/30 10:24:43;;;;;;;8.53;7.93;;;15.70;99.90;;;;;;5064480;28;20224;-79
2022/04/30 10:27:10;;;;;;;7.53;6.73;;;16.00;99.90;;;;;;5088016;28;20572;-79
2022/04/30 10:29:39;;;;;;;5.50;5.00;;;16.30;99.90;;;;;;5063127;28;20300;-80
2022/04/30 10:32:06;;;;;;;7.20;6.50;;;16.50;99.90;;;;;;5078435;28;20198;-79
2022/04/30 10:34:34;;;;;;;8.83;8.03;;;16.50;99.90;;;;;;5081362;28;20225;-79
2022/04/30 10:37:04;;;;;;;7.23;6.63;;;16.50;99.90;;;;;;5076212;28;20729;-80
2022/04/30 10:39:31;;;;;;;7.10;6.50;;;16.50;99.90;;;;;;5086609;28;20205;-80
2022/04/30 10:41:58;;;;;;;8.53;7.83;;;16.80;99.90;;;;;;5070089;28;20230;-80
2022/04/30 10:44:29;;;;;;;7.83;6.97;;;16.80;99.90;;;;;;5083213;28;20384;-80
2022/04/30 10:47:08;;;;;;;6.43;5.83;;;16.70;99.90;;;;;;5071103;28;20202;-80
2022/04/30 10:49:36;;;;;;;8.83;8.13;;;16.30;99.90;;;;;;5086885;28;20262;-79
2022/04/30 10:52:03;;;;;;;9.60;8.90;;;16.20;99.90;;;;;;5086446;28;20576;-79
2022/04/30 10:54:31;;;;;;;6.10;5.50;;;15.80;99.90;;;;;;5085965;28;20226;-80
2022/04/30 10:56:59;;;;;;;6.17;5.57;;;15.60;99.90;;;;;;5067037;28;20205;-80
2022/04/30 10:59:27;;;;;;;8.50;7.73;;;15.40;99.90;;;;;;5080917;28;20220;-80
2022/04/30 11:01:54;;;;;;;9.40;8.60;;;14.90;99.90;;;;;;5065868;28;20569;-79
2022/04/30 11:04:23;;;;;;;10.10;9.30;;;14.60;99.90;;;;;;5078056;28;20225;-79
2022/04/30 11:06:52;;;;;;;11.17;10.27;;;14.40;99.90;;;;;;5076427;28;20232;-79
2022/04/30 11:09:21;;;;;;;7.67;6.87;;;14.10;99.90;;;;;;5082360;28;20618;-80
2022/04/30 11:11:49;;;;;;;6.97;6.27;;;14.00;99.90;;;;;;5078447;28;20622;-80
2022/04/30 11:14:17;;;;;;;7.53;6.60;;;13.90;99.90;;;;;;5073546;28;20219;-79
2022/04/30 11:16:45;;;;;;;11.00;10.10;;;13.90;99.90;;;;;;5078495;28;20213;-79
2022/04/30 11:19:14;;;;;;;7.30;6.60;;;13.90;99.90;;;;;;5084422;28;20200;-80
2022/04/30 11:21:43;;;;;;;9.90;9.10;;;14.00;99.90;;;;;;5077781;28;20209;-80
2022/04/30 11:24:12;;;;;;;8.50;7.67;;;14.00;99.90;;;;;;5080637;28;20231;-79
2022/04/30 11:26:39;;;;;;;6.90;6.20;;;13.90;99.90;;;;;;5070143;28;20205;-79
2022/04/30 11:29:11;;;;;;;10.20;9.30;;;13.90;99.90;;;;;;5081238;28;20278;-79
2022/04/30 11:31:38;;;;;;;7.33;6.60;;;14.00;99.90;;;;;;5094385;28;20208;-80
2022/04/30 11:34:09;;;;;;;7.30;6.60;;;14.10;99.90;;;;;;5080184;28;20215;-80
2022/04/30 11:36:42;;;;;;;7.33;6.63;;;14.30;99.90;;;;;;5074129;28;20208;-78
2022/04/30 11:39:10;;;;;;;6.60;6.00;;;14.50;99.90;;;;;;5073767;28;20234;-79
2022/04/30 11:41:41;;;;;;;9.13;8.33;;;14.50;99.90;;;;;;5086156;28;20202;-79
2022/04/30 11:44:09;;;;;;;8.67;7.97;;;14.60;99.90;;;;;;5075061;28;20226;-80
2022/04/30 11:46:37;;;;;;;10.07;9.17;;;14.70;99.90;;;;;;5071033;28;20290;-80
2022/04/30 11:49:09;;;;;;;9.27;8.57;;;14.70;99.90;;;;;;5088687;28;20211;-83
2022/04/30 11:51:37;;;;;;;6.00;5.50;;;14.80;99.90;;;;;;5065419;28;20205;-88
2022/04/30 11:54:09;;;;;;;7.97;7.27;;;14.90;99.90;;;;;;5072185;28;20229;-79
2022/04/30 11:56:37;;;;;;;6.43;5.50;;;15.20;99.90;;;;;;5078611;28;20680;-79
2022/04/30 11:59:05;;;;;;;6.22;5.60;;;15.40;99.90;;;;;;5084786;28;20439;-80
2022/04/30 12:01:35;;;;;;;6.17;5.57;;;15.70;99.90;;;;;;5079818;28;20300;-79
2022/04/30 12:04:05;;;;;;;7.63;7.03;;;16.10;99.90;;;;;;5084090;28;20221;-77
2022/04/30 12:06:32;;;;;;;7.60;7.00;;;16.30;99.90;;;;;;5087278;28;20659;-81
2022/04/30 12:09:00;;;;;;;7.90;7.23;;;16.70;99.90;;;;;;5085717;28;20232;-81
2022/04/30 12:11:29;;;;;;;8.10;7.30;;;16.70;99.90;;;;;;5085925;28;20296;-79
2022/04/30 12:14:04;;;;;;;9.83;9.03;;;16.60;99.90;;;;;;5077109;28;20222;-80
2022/04/30 12:16:36;;;;;;;9.20;8.53;;;16.30;99.90;;;;;;5089401;28;20208;-80
2022/04/30 12:24:42;;;;;;;10.63;9.73;;;15.00;99.90;;;;;;5088767;28;20252;-80
2022/04/30 12:27:18;;;;;;;9.67;8.87;;;14.70;99.90;;;;;;5084502;28;20674;-80
2022/04/30 12:29:46;;;;;;;11.13;10.23;;;14.40;99.90;;;;;;5083498;28;20228;-81
2022/04/30 12:32:17;;;;;;;12.37;11.10;;;14.10;99.90;;;;;;5082535;28;20202;-77
2022/04/30 12:34:45;;;;;;;9.70;8.90;;;13.90;99.90;;;;;;5090614;28;20203;-79
2022/04/30 12:37:12;;;;;;;11.80;10.90;;;13.90;99.90;;;;;;5080383;28;20213;-79
2022/04/30 12:39:40;;;;;;;6.73;6.13;;;13.90;99.90;;;;;;5073594;28;20233;-79
2022/04/30 12:42:11;;;;;;;6.17;5.57;;;14.00;99.90;;;;;;5078027;28;20432;-79
2022/04/30 12:44:39;;;;;;;9.23;8.23;;;14.30;99.90;;;;;;5069523;28;20221;-79
2022/04/30 12:47:06;;;;;;;9.50;8.60;;;14.50;99.90;;;;;;5074551;28;20382;-79
2022/04/30 12:49:34;;;;;;;6.87;6.17;;;14.40;99.90;;;;;;5077557;28;20202;-79
2022/04/30 12:52:01;;;;;;;10.27;9.37;;;14.60;99.90;;;;;;5074522;28;20199;-80
2022/04/30 12:54:28;;;;;;;10.60;9.70;;;14.60;99.90;;;;;;5077174;28;20228;-80
2022/04/30 12:56:57;;;;;;;11.53;10.53;;;14.60;99.90;;;;;;5076901;28;20208;-79
2022/04/30 12:59:25;;;;;;;11.90;10.90;;;14.60;99.90;;;;;;5076969;28;20208;-79
2022/04/30 13:01:55;;;;;;;11.13;10.07;;;14.40;99.90;;;;;;5086656;28;20235;-79
2022/04/30 13:04:22;;;;;;;11.07;10.07;;;14.40;99.90;;;;;;5089307;28;20222;-78
2022/04/30 13:06:49;;;;;;;10.20;9.40;;;14.20;99.90;;;;;;5074020;28;20203;-80
2022/04/30 13:14:45;;;;;;;7.73;6.37;;;13.50;99.90;;;;;;5082349;28;20195;-80
2022/04/30 13:17:13;;;;;;;8.50;7.70;;;13.60;99.90;;;;;;5080200;28;20198;-79
2022/04/30 13:19:40;;;;;;;6.27;5.77;;;13.70;99.90;;;;;;5090883;28;20212;-80
2022/04/30 13:22:07;;;;;;;8.90;8.10;;;13.90;99.90;;;;;;5069720;28;20203;-80
2022/04/30 13:24:34;;;;;;;8.77;8.07;;;13.90;99.90;;;;;;5089796;28;20217;-79
2022/04/30 13:27:01;;;;;;;8.33;7.63;;;14.00;99.90;;;;;;5086128;28;20226;-80